Time;durP1;ratioP1;P1;durP2;ratioP2;P2;SDS_P1;SDS_P2;PMS_P1;PMS_P2;Temp;Humidity;BMP_temperature;BMP_pressure;BME280_temperature;BME280_humidity;BME280_pressure;Samples;Min_cycle;Max_cycle;Signal;HPM_P1;HPM_P2
2022/03/12 00:00:57;;;;;;;;;3.67;3.67;;;;;10.90;67.44;100751.00;5038230;28;46382;-70
2022/03/12 00:03:23;;;;;;;;;4.00;4.00;;;;;10.84;67.76;100756.91;5038773;28;45431;-67
2022/03/12 00:05:55;;;;;;;;;6.33;2.67;;;;;11.02;67.91;100783.59;5038331;28;45310;-68
2022/03/12 00:08:28;;;;;;;;;2.33;2.33;;;;;10.86;67.60;100754.09;5038483;28;45256;-69
2022/03/12 00:10:53;;;;;;;;;5.67;4.33;;;;;10.95;67.64;100779.81;5036764;28;48020;-68
2022/03/12 00:13:20;;;;;;;;;3.33;3.33;;;;;10.50;67.50;100706.06;5038210;28;45455;-69
2022/03/12 00:15:50;;;;;;;;;2.33;2.33;;;;;10.98;67.72;100790.16;5038198;28;45613;-69
2022/03/12 00:18:20;;;;;;;;;4.00;4.00;;;;;10.31;67.70;100688.34;5042739;28;45483;-68
2022/03/12 00:20:50;;;;;;;;;3.33;3.00;;;;;10.32;67.65;100702.47;5056420;28;47743;-70
2022/03/12 00:23:20;;;;;;;;;3.67;3.67;;;;;10.76;67.69;100790.50;5053184;28;45512;-71
2022/03/12 00:25:48;;;;;;;;;6.67;4.00;;;;;10.81;67.58;100794.44;5036858;28;45356;-70
2022/03/12 00:28:15;;;;;;;;;4.00;2.33;;;;;10.80;67.57;100802.53;5036132;28;45552;-68
2022/03/12 00:30:42;;;;;;;;;4.00;4.00;;;;;10.33;68.03;100726.25;5035670;28;45625;-68
2022/03/12 00:33:08;;;;;;;;;4.00;3.00;;;;;10.82;67.78;100811.22;5035467;28;45512;-68
2022/03/12 00:35:33;;;;;;;;;4.00;4.00;;;;;10.85;68.16;100808.28;5036964;28;45413;-67
2022/03/12 00:37:59;;;;;;;;;3.00;3.00;;;;;10.69;67.79;100768.97;5037872;28;45487;-70
2022/03/12 00:40:24;;;;;;;;;3.33;2.67;;;;;10.81;67.80;100788.25;5036087;28;48370;-68
2022/03/12 00:42:50;;;;;;;;;3.00;3.00;;;;;10.83;67.42;100781.81;5037737;28;45557;-69
2022/03/12 00:45:15;;;;;;;;;3.00;3.00;;;;;11.03;67.17;100806.53;5037259;28;45350;-68
2022/03/12 00:47:41;;;;;;;;;2.00;2.00;;;;;11.10;66.98;100815.59;5037393;28;45200;-68
2022/03/12 00:50:07;;;;;;;;;3.67;3.33;;;;;11.04;66.91;100794.91;5034903;28;46454;-69
2022/03/12 00:52:32;;;;;;;;;2.00;2.00;;;;;11.03;67.18;100811.88;5037088;28;45170;-68
2022/03/12 00:54:58;;;;;;;;;2.00;2.00;;;;;11.17;67.25;100843.31;5035404;28;45612;-68
2022/03/12 00:57:23;;;;;;;;;3.00;1.67;;;;;11.04;67.12;100815.38;5037439;28;45558;-68
2022/03/12 00:59:49;;;;;;;;;3.00;3.00;;;;;10.75;67.18;100754.25;5036884;28;45611;-69
2022/03/12 01:02:16;;;;;;;;;5.00;4.00;;;;;11.20;66.43;100832.38;5036978;28;45527;-68
2022/03/12 01:04:42;;;;;;;;;2.33;2.33;;;;;11.27;66.46;100833.47;5036515;28;45481;-68
2022/03/12 01:07:12;;;;;;;;;7.00;4.00;;;;;11.33;66.06;100845.34;5036131;28;45660;-69
2022/03/12 01:09:40;;;;;;;;;4.00;2.67;;;;;11.19;66.19;100829.84;5034586;28;47160;-68
2022/03/12 01:12:07;;;;;;;;;3.00;3.00;;;;;11.35;66.25;100866.50;5044475;28;45234;-68
2022/03/12 01:14:34;;;;;;;;;3.67;3.67;;;;;11.35;66.45;100855.84;5056042;28;45295;-69
2022/03/12 01:16:59;;;;;;;;;3.67;3.00;;;;;11.34;66.11;100859.50;5057027;28;45427;-68
2022/03/12 01:19:25;;;;;;;;;2.00;2.00;;;;;11.31;66.07;100857.13;5055473;28;47577;-69
2022/03/12 01:21:51;;;;;;;;;3.33;3.33;;;;;11.32;66.06;100859.66;5057134;28;45427;-68
2022/03/12 01:24:16;;;;;;;;;4.33;3.00;;;;;11.32;66.34;100866.78;5056812;28;45442;-69
2022/03/12 01:26:42;;;;;;;;;5.00;3.67;;;;;11.31;66.17;100870.44;5057043;28;45542;-68
2022/03/12 01:29:07;;;;;;;;;3.00;3.00;;;;;11.15;65.99;100855.91;5056528;28;45519;-68
2022/03/12 01:31:34;;;;;;;;;4.00;4.00;;;;;11.26;65.93;100862.91;5056612;28;45512;-69
2022/03/12 01:34:00;;;;;;;;;3.00;3.00;;;;;11.04;65.55;100823.34;5056845;28;45504;-69
2022/03/12 01:36:26;;;;;;;;;3.00;3.00;;;;;11.29;65.78;100859.94;5057005;28;45354;-69
2022/03/12 01:38:54;;;;;;;;;2.33;2.33;;;;;11.08;66.04;100833.53;5056569;28;46646;-69
2022/03/12 01:41:23;;;;;;;;;3.33;3.33;;;;;11.24;66.40;100867.53;5054607;28;45380;-68
2022/03/12 01:43:49;;;;;;;;;3.00;3.00;;;;;11.18;65.95;100860.94;5057674;28;45440;-68
2022/03/12 01:46:15;;;;;;;;;3.33;3.33;;;;;11.11;66.69;100869.66;5059035;28;45561;-69
2022/03/12 01:48:46;;;;;;;;;2.67;2.67;;;;;11.03;66.13;100873.06;5058825;28;46649;-68
2022/03/12 01:51:13;;;;;;;;;1.00;1.00;;;;;11.02;66.27;100878.53;5060275;28;45496;-68
2022/03/12 01:53:38;;;;;;;;;4.33;3.33;;;;;10.96;66.59;100874.59;5060291;28;45524;-68
2022/03/12 01:56:04;;;;;;;;;4.00;3.33;;;;;10.39;66.62;100772.66;5060491;28;45414;-69
2022/03/12 01:58:30;;;;;;;;;5.67;4.00;;;;;10.94;66.49;100873.91;5059774;28;45843;-69
2022/03/12 02:01:00;;;;;;;;;7.00;5.00;;;;;10.50;66.30;100808.91;5059635;28;45394;-69
2022/03/12 02:03:29;;;;;;;;;3.67;3.67;;;;;10.80;66.81;100867.19;5058717;28;45654;-69
2022/03/12 02:05:58;;;;;;;;;6.00;6.00;;;;;10.33;66.68;100799.81;5039747;28;45337;-68
2022/03/12 02:08:24;;;;;;;;;5.00;5.00;;;;;10.32;66.58;100806.09;5039340;28;46540;-69
2022/03/12 02:10:51;;;;;;;;;5.00;2.33;;;;;10.86;66.89;100898.56;5039646;28;45304;-67
2022/03/12 02:13:17;;;;;;;;;3.00;3.00;;;;;10.93;66.71;100909.47;5039511;28;45162;-68
2022/03/12 02:15:43;;;;;;;;;3.00;3.00;;;;;10.90;66.67;100899.94;5038543;28;45451;-68
2022/03/12 02:18:09;;;;;;;;;5.00;5.00;;;;;10.90;66.75;100907.09;5039528;28;46026;-67
2022/03/12 02:20:34;;;;;;;;;6.67;5.00;;;;;10.71;66.84;100884.00;5039703;28;45419;-69
2022/03/12 02:23:00;;;;;;;;;3.00;3.00;;;;;10.45;66.43;100846.53;5039718;28;45366;-69
2022/03/12 02:25:33;;;;;;;;;5.00;4.00;;;;;10.80;66.75;100898.25;5038544;28;45502;-68
2022/03/12 02:28:01;;;;;;;;;6.33;4.00;;;;;10.53;66.83;100851.97;5039288;28;45513;-68
2022/03/12 02:30:51;;;;;;;;;5.00;4.00;;;;;10.80;66.48;100891.13;5039601;28;45341;-69
2022/03/12 02:33:23;;;;;;;;;6.00;4.33;;;;;10.58;66.51;100863.03;5041004;28;45251;-69
2022/03/12 02:35:48;;;;;;;;;4.33;4.33;;;;;10.53;66.80;100849.31;5038378;28;45343;-68
2022/03/12 02:38:14;;;;;;;;;4.33;4.33;;;;;10.76;67.12;100894.22;5039141;28;45587;-68
2022/03/12 02:40:41;;;;;;;;;5.00;3.00;;;;;10.76;67.08;100902.19;5039326;28;45236;-68
2022/03/12 02:43:10;;;;;;;;;3.33;3.33;;;;;10.66;66.90;100887.09;5038158;28;45549;-68
2022/03/12 02:45:37;;;;;;;;;4.67;4.00;;;;;10.72;66.73;100900.81;5038054;28;45577;-68
2022/03/12 02:48:02;;;;;;;;;5.00;4.00;;;;;10.79;66.76;100902.75;5038955;28;46404;-69
2022/03/12 02:50:28;;;;;;;;;6.33;4.00;;;;;10.65;66.80;100871.28;5037640;28;46339;-69
2022/03/12 02:52:54;;;;;;;;;3.00;3.00;;;;;10.81;66.12;100890.19;5039088;28;45429;-69
2022/03/12 02:55:22;;;;;;;;;4.33;4.00;;;;;10.20;66.72;100788.59;5037380;28;45266;-67
2022/03/12 02:57:49;;;;;;;;;5.33;5.33;;;;;10.73;66.28;100873.22;5038976;28;46212;-69
2022/03/12 03:00:16;;;;;;;;;5.67;5.00;;;;;10.74;66.33;100872.25;5038798;28;45628;-69
2022/03/12 03:02:49;;;;;;;;;5.67;3.33;;;;;10.93;66.33;100904.97;5039263;28;45292;-69
2022/03/12 03:05:17;;;;;;;;;5.67;5.67;;;;;10.95;65.94;100907.50;5046441;28;45441;-68
2022/03/12 03:07:45;;;;;;;;;4.67;2.00;;;;;10.87;66.22;100907.38;5038556;28;46691;-69
2022/03/12 03:10:28;;;;;;;;;5.00;5.00;;;;;10.68;66.37;100884.31;5037150;28;45273;-70
2022/03/12 03:12:54;;;;;;;;;4.67;4.00;;;;;10.73;66.42;100902.47;5051965;28;45565;-69
2022/03/12 03:15:19;;;;;;;;;3.67;3.33;;;;;10.78;66.45;100910.88;5059028;28;45274;-67
2022/03/12 03:17:47;;;;;;;;;4.67;4.67;;;;;10.73;66.83;100902.47;5058939;28;46505;-69
2022/03/12 03:20:13;;;;;;;;;6.00;6.00;;;;;10.78;66.65;100908.22;5058912;28;45197;-69
2022/03/12 03:22:38;;;;;;;;;4.00;4.00;;;;;10.64;66.13;100883.75;5058616;28;45424;-67
2022/03/12 03:25:04;;;;;;;;;4.33;4.00;;;;;10.84;66.18;100915.66;5058572;28;45382;-68
2022/03/12 03:27:29;;;;;;;;;4.00;2.33;;;;;10.78;66.24;100905.56;5058490;28;46652;-68
2022/03/12 03:29:55;;;;;;;;;3.67;3.67;;;;;10.82;66.03;100917.59;5058589;28;45501;-68
2022/03/12 03:32:22;;;;;;;;;7.00;5.00;;;;;10.65;66.44;100895.22;5058947;28;45294;-68
2022/03/12 03:34:47;;;;;;;;;3.00;3.00;;;;;10.22;66.12;100824.72;5056987;28;45642;-68
2022/03/12 03:37:12;;;;;;;;;3.00;3.00;;;;;10.30;66.12;100842.63;5040160;28;45637;-69
2022/03/12 03:39:39;;;;;;;;;2.67;2.67;;;;;10.76;65.98;100915.50;5038442;28;45231;-70
2022/03/12 03:42:05;;;;;;;;;6.33;6.00;;;;;10.53;65.93;100891.00;5037486;28;45479;-67
2022/03/12 03:44:30;;;;;;;;;2.67;2.00;;;;;10.69;66.08;100914.38;5038367;28;45240;-68
2022/03/12 03:46:56;;;;;;;;;3.00;3.00;;;;;10.73;66.02;100929.06;5038319;28;46299;-70
2022/03/12 03:49:22;;;;;;;;;4.33;3.67;;;;;10.77;66.16;100930.47;5038326;28;45197;-67
2022/03/12 03:51:48;;;;;;;;;3.00;3.00;;;;;10.77;65.67;100930.47;5038247;28;45277;-70
2022/03/12 03:54:15;;;;;;;;;3.33;3.33;;;;;10.57;65.43;100897.72;5038376;28;45212;-68
2022/03/12 03:56:41;;;;;;;;;4.00;4.00;;;;;10.73;66.03;100923.75;5036616;28;45573;-70
2022/03/12 03:59:07;;;;;;;;;4.00;4.00;;;;;10.73;65.83;100935.22;5035984;28;45333;-68
2022/03/12 04:01:37;;;;;;;;;5.67;5.67;;;;;10.26;65.58;100862.47;5037266;28;45464;-69
2022/03/12 04:04:02;;;;;;;;;4.33;4.00;;;;;10.61;65.88;100921.25;5038281;28;45245;-67
2022/03/12 04:06:27;;;;;;;;;6.00;4.00;;;;;10.68;65.97;100931.31;5037437;28;45576;-69
2022/03/12 04:08:54;;;;;;;;;5.00;4.67;;;;;10.74;65.37;100936.06;5038002;28;45253;-70
2022/03/12 04:11:21;;;;;;;;;6.00;3.00;;;;;10.70;65.33;100932.03;5038217;28;45303;-68
2022/03/12 04:13:49;;;;;;;;;3.00;3.00;;;;;10.68;65.76;100926.84;5038278;28;45249;-68
2022/03/12 04:16:15;;;;;;;;;5.67;4.67;;;;;10.64;65.57;100928.13;5037907;28;45896;-68
2022/03/12 04:18:46;;;;;;;;;4.67;3.33;;;;;10.21;65.61;100857.59;5037911;28;45196;-68
2022/03/12 04:21:13;;;;;;;;;5.00;5.00;;;;;10.68;65.50;100936.66;5038014;28;45515;-67
2022/03/12 04:23:41;;;;;;;;;4.00;4.00;;;;;10.73;65.34;100934.41;5036953;28;45641;-68
2022/03/12 04:26:07;;;;;;;;;2.33;2.00;;;;;10.64;65.40;100923.63;5037714;28;46522;-68
2022/03/12 04:28:32;;;;;;;;;3.00;3.00;;;;;10.74;65.51;100941.38;5037654;28;45640;-68
2022/03/12 04:31:02;;;;;;;;;4.67;4.00;;;;;10.57;65.20;100919.84;5038194;28;45316;-70
2022/03/12 04:33:29;;;;;;;;;3.67;3.67;;;;;10.72;64.85;100932.72;5038429;28;45340;-69
2022/03/12 04:35:55;;;;;;;;;4.00;4.00;;;;;10.69;64.91;100936.50;5057612;28;46510;-68
2022/03/12 04:38:20;;;;;;;;;6.67;4.00;;;;;10.69;65.01;100936.50;5057659;28;46087;-68
2022/03/12 04:40:46;;;;;;;;;4.00;4.00;;;;;10.53;65.25;100926.41;5057963;28;45242;-69
2022/03/12 04:43:12;;;;;;;;;3.00;2.33;;;;;9.85;65.24;100826.34;5056422;28;45282;-68
2022/03/12 04:45:42;;;;;;;;;1.33;1.33;;;;;10.39;65.47;100916.19;5056222;28;47295;-70
2022/03/12 04:48:10;;;;;;;;;7.33;5.33;;;;;10.44;65.54;100929.91;5056267;28;45634;-68
2022/03/12 04:50:35;;;;;;;;;4.67;3.67;;;;;10.39;65.05;100941.91;5056440;28;45298;-69
2022/03/12 04:53:01;;;;;;;;;3.00;3.00;;;;;10.38;66.20;100941.09;5056457;28;45536;-67
2022/03/12 04:55:28;;;;;;;;;3.67;3.67;;;;;10.26;65.84;100936.88;5056294;28;47299;-68
2022/03/12 04:57:54;;;;;;;;;4.00;3.00;;;;;10.23;65.73;100934.50;5057272;28;45542;-68
2022/03/12 05:00:25;;;;;;;;;4.00;3.00;;;;;10.27;65.98;100955.34;5056037;28;45429;-68
2022/03/12 05:02:55;;;;;;;;;3.00;3.00;;;;;10.23;65.53;100958.41;5057802;28;45215;-69
2022/03/12 05:05:21;;;;;;;;;3.33;3.00;;;;;10.25;65.90;100972.41;5037281;28;45716;-68
2022/03/12 05:07:47;;;;;;;;;3.67;3.67;;;;;10.21;66.46;100968.31;5036991;28;45450;-69
2022/03/12 05:10:16;;;;;;;;;4.00;2.33;;;;;10.26;66.14;100974.94;5037297;28;45377;-67
2022/03/12 05:12:43;;;;;;;;;4.00;2.67;;;;;10.21;66.03;100968.31;5036132;28;45504;-70
2022/03/12 05:15:14;;;;;;;;;3.00;3.00;;;;;10.17;66.37;100959.75;5037140;28;46320;-68
2022/03/12 05:17:48;;;;;;;;;3.00;3.00;;;;;10.22;66.14;100967.38;5035377;28;45439;-68
2022/03/12 05:20:21;;;;;;;;;3.00;3.00;;;;;10.28;66.02;100964.16;5036554;28;45474;-69
2022/03/12 05:22:48;;;;;;;;;5.33;2.67;;;;;10.31;65.86;100974.50;5037318;28;45411;-68
2022/03/12 05:25:15;;;;;;;;;2.00;2.00;;;;;9.85;65.44;100882.94;5036775;28;45538;-66
2022/03/12 05:27:41;;;;;;;;;2.33;2.33;;;;;10.33;65.37;100965.41;5036906;28;45482;-68
2022/03/12 05:30:06;;;;;;;;;2.33;2.33;;;;;10.33;65.33;100972.56;5035454;28;45253;-68
2022/03/12 05:32:32;;;;;;;;;1.67;1.67;;;;;10.38;65.23;100972.97;5037026;28;45306;-68
2022/03/12 05:34:57;;;;;;;;;4.33;4.33;;;;;10.34;65.68;100975.06;5036912;28;46093;-68
2022/03/12 05:37:23;;;;;;;;;3.00;2.67;;;;;10.25;65.72;100969.75;5035617;28;45333;-68
2022/03/12 05:39:53;;;;;;;;;4.33;3.00;;;;;10.20;65.85;100964.78;5035467;28;45399;-68
2022/03/12 05:42:22;;;;;;;;;4.00;4.00;;;;;9.85;65.88;100913.97;5036477;28;45482;-66
2022/03/12 05:44:47;;;;;;;;;3.00;3.00;;;;;9.81;65.66;100902.78;5036579;28;45942;-67
2022/03/12 05:47:13;;;;;;;;;2.00;2.00;;;;;10.18;65.49;100976.53;5036451;28;45178;-68
2022/03/12 05:49:39;;;;;;;;;3.33;3.33;;;;;10.20;65.77;100979.88;5036916;28;45315;-67
2022/03/12 05:52:04;;;;;;;;;3.33;3.00;;;;;10.24;65.92;100998.13;5036781;28;45667;-68
2022/03/12 05:54:30;;;;;;;;;5.33;4.33;;;;;10.20;65.43;100995.81;5036390;28;46387;-68
2022/03/12 05:56:56;;;;;;;;;3.00;3.00;;;;;10.26;65.58;101000.66;5036463;28;45510;-68
2022/03/12 05:59:22;;;;;;;;;4.33;4.33;;;;;10.32;65.67;100997.44;5036682;28;45314;-68
2022/03/12 06:01:50;;;;;;;;;6.67;3.00;;;;;10.23;65.02;100969.88;5035731;28;45432;-67
2022/03/12 06:04:19;;;;;;;;;4.00;2.00;;;;;10.27;65.33;100973.94;5044022;28;46406;-69
2022/03/12 06:06:46;;;;;;;;;5.00;3.67;;;;;10.44;64.90;100990.22;5056163;28;45527;-69
2022/03/12 06:09:12;;;;;;;;;3.67;3.67;;;;;10.43;65.24;100997.34;5056756;28;45417;-68
2022/03/12 06:11:38;;;;;;;;;5.00;4.33;;;;;10.33;65.13;100999.13;5056731;28;45293;-69
2022/03/12 06:14:04;;;;;;;;;4.67;4.67;;;;;9.65;65.88;100915.72;5056336;28;46352;-68
2022/03/12 06:16:31;;;;;;;;;5.33;4.00;;;;;10.16;65.46;101008.56;5055120;28;46196;-66
2022/03/12 06:18:57;;;;;;;;;3.00;3.00;;;;;10.12;65.87;100993.03;5056493;28;45527;-67
2022/03/12 06:21:22;;;;;;;;;6.33;4.33;;;;;10.28;65.81;101019.97;5056734;28;45289;-67
2022/03/12 06:23:48;;;;;;;;;4.33;4.33;;;;;10.27;64.74;101018.28;5055827;28;45505;-69
2022/03/12 06:26:14;;;;;;;;;5.00;5.00;;;;;10.12;66.48;101025.75;5054718;28;46447;-67
2022/03/12 06:28:44;;;;;;;;;6.00;5.00;;;;;10.18;66.08;101029.66;5041158;28;45331;-68
2022/03/12 06:31:15;;;;;;;;;6.33;4.00;;;;;10.17;65.92;101038.63;5035926;28;45384;-67
2022/03/12 06:33:42;;;;;;;;;4.00;4.00;;;;;10.04;65.57;101007.00;5038158;28;47422;-67
2022/03/12 06:36:09;;;;;;;;;4.67;4.67;;;;;10.17;65.68;101012.88;5039413;28;45414;-68
2022/03/12 06:38:37;;;;;;;;;6.00;5.00;;;;;10.27;65.15;101015.63;5039501;28;45495;-69
2022/03/12 06:41:02;;;;;;;;;5.00;5.00;;;;;10.30;64.90;101020.66;5039765;28;45415;-68
2022/03/12 06:43:28;;;;;;;;;4.00;4.00;;;;;10.28;64.62;101017.31;5039349;28;46078;-69
2022/03/12 06:45:59;;;;;;;;;2.00;2.00;;;;;10.47;64.32;101040.44;5037869;28;45447;-69
2022/03/12 06:48:25;;;;;;;;;3.00;3.00;;;;;10.40;64.37;101034.81;5038031;28;45432;-69
2022/03/12 06:50:51;;;;;;;;;3.67;3.67;;;;;10.41;64.39;101046.28;5038276;28;45285;-69
2022/03/12 06:53:17;;;;;;;;;4.00;3.00;;;;;10.42;64.37;101063.94;5037640;28;47129;-68
2022/03/12 06:55:42;;;;;;;;;3.00;3.00;;;;;10.44;64.57;101057.50;5039097;28;45248;-67
2022/03/12 06:58:08;;;;;;;;;5.00;3.33;;;;;10.37;64.42;101064.31;5039267;28;45499;-69
2022/03/12 07:00:35;;;;;;;;;3.67;3.00;;;;;10.33;64.42;101073.53;5039402;28;45270;-69
2022/03/12 07:03:01;;;;;;;;;3.67;3.67;;;;;10.38;64.64;101084.59;5039239;28;45780;-70
2022/03/12 07:05:27;;;;;;;;;4.00;4.00;;;;;10.34;64.72;101075.22;5039052;28;45670;-68
2022/03/12 07:07:53;;;;;;;;;4.00;4.00;;;;;10.17;64.64;101049.25;5037483;28;45407;-70
2022/03/12 07:10:19;;;;;;;;;6.00;5.33;;;;;10.38;64.62;101078.44;5039323;28;45539;-69
2022/03/12 07:12:46;;;;;;;;;4.33;4.00;;;;;10.39;64.08;101091.59;5037533;28;47763;-69
2022/03/12 07:15:12;;;;;;;;;4.67;4.33;;;;;10.43;64.25;101098.34;5037557;28;46078;-70
2022/03/12 07:17:39;;;;;;;;;6.00;4.33;;;;;10.33;64.19;101098.28;5037636;28;45318;-68
2022/03/12 07:20:05;;;;;;;;;4.33;3.33;;;;;9.97;64.55;101040.34;5039009;28;45215;-68
2022/03/12 07:22:32;;;;;;;;;3.33;3.33;;;;;9.74;65.08;100994.53;5037248;28;47692;-69
2022/03/12 07:24:58;;;;;;;;;3.00;3.00;;;;;10.30;64.98;101097.72;5038514;28;45538;-69
2022/03/12 07:27:24;;;;;;;;;5.33;4.00;;;;;10.32;65.06;101095.78;5038838;28;45535;-68
2022/03/12 07:29:51;;;;;;;;;3.67;3.67;;;;;10.44;65.03;101099.19;5038751;28;45301;-68
2022/03/12 07:32:16;;;;;;;;;5.33;4.67;;;;;10.40;64.58;101093.28;5037231;28;48715;-69
2022/03/12 07:34:42;;;;;;;;;3.00;2.00;;;;;10.43;64.24;101089.53;5040880;28;45620;-70
2022/03/12 07:37:11;;;;;;;;;3.67;2.67;;;;;10.57;64.25;101105.94;5038726;28;45169;-69
2022/03/12 07:39:37;;;;;;;;;7.00;5.67;;;;;10.53;64.23;101091.22;5035172;28;45626;-69
2022/03/12 07:42:03;;;;;;;;;4.33;4.33;;;;;10.60;63.97;101089.72;5037480;28;46229;-69
2022/03/12 07:44:29;;;;;;;;;3.67;3.67;;;;;10.81;63.74;101102.94;5038427;28;45419;-70
2022/03/12 07:46:54;;;;;;;;;5.00;3.67;;;;;10.78;63.80;101094.38;5038845;28;45265;-70
2022/03/12 07:49:20;;;;;;;;;5.67;5.00;;;;;10.48;63.83;101026.16;5036259;28;45538;-70
2022/03/12 07:51:47;;;;;;;;;7.67;7.00;;;;;11.04;62.96;101095.56;5036687;28;47848;-70
2022/03/12 07:54:16;;;;;;;;;4.00;4.00;;;;;11.10;63.21;101100.31;5037082;28;45330;-69
2022/03/12 07:56:42;;;;;;;;;6.00;6.00;;;;;11.16;62.76;101101.56;5039579;28;45358;-71
2022/03/12 07:59:09;;;;;;;;;5.33;4.33;;;;;11.05;62.33;101089.25;5044216;28;45400;-68
2022/03/12 08:01:34;;;;;;;;;4.67;4.00;;;;;11.06;62.40;101090.94;5038025;28;45520;-71
2022/03/12 08:04:01;;;;;;;;;5.33;3.33;;;;;11.08;62.18;101099.63;5035925;28;45276;-68
2022/03/12 08:06:28;;;;;;;;;6.00;5.00;;;;;11.07;62.90;101123.72;5038277;28;45486;-69
2022/03/12 08:08:54;;;;;;;;;5.00;5.00;;;;;11.16;63.08;101144.16;5036856;28;45469;-70
2022/03/12 08:11:25;;;;;;;;;4.00;3.00;;;;;11.17;62.62;101146.66;5046481;28;47417;-69
2022/03/12 08:14:00;;;;;;;;;6.67;3.67;;;;;11.18;62.65;101143.03;5036640;28;46699;-71
2022/03/12 08:16:26;;;;;;;;;4.67;4.67;;;;;11.28;62.38;101159.88;5036392;28;45256;-71
2022/03/12 08:18:54;;;;;;;;;5.00;4.00;;;;;11.15;62.55;101138.00;5036677;28;45420;-70
2022/03/12 08:21:20;;;;;;;;;8.67;6.67;;;;;11.05;62.76;101120.34;5037526;28;46248;-69
2022/03/12 08:23:46;;;;;;;;;5.67;5.67;;;;;11.30;62.23;101157.06;5038107;28;45276;-68
2022/03/12 08:26:13;;;;;;;;;4.00;4.00;;;;;11.33;62.19;101171.91;5036044;28;45562;-70
2022/03/12 08:28:38;;;;;;;;;4.00;4.00;;;;;11.34;61.95;101173.59;5054009;28;45596;-70
2022/03/12 08:31:05;;;;;;;;;5.33;5.33;;;;;11.33;62.51;101177.25;5056494;28;45747;-69
2022/03/12 08:33:31;;;;;;;;;6.00;4.00;;;;;11.36;62.45;101166.31;5036037;28;45202;-72
2022/03/12 08:35:58;;;;;;;;;7.33;5.00;;;;;11.30;62.66;101172.19;5037451;28;45826;-69
2022/03/12 08:38:26;;;;;;;;;5.00;4.00;;;;;11.30;62.61;101178.34;5036050;28;45260;-70
2022/03/12 08:40:52;;;;;;;;;5.00;4.00;;;;;11.34;62.24;101176.25;5036291;28;46261;-71
2022/03/12 08:43:18;;;;;;;;;5.67;5.33;;;;;10.74;62.80;101087.66;5036165;28;45240;-68
2022/03/12 08:45:43;;;;;;;;;5.00;5.00;;;;;11.24;63.02;101173.59;5037313;28;45332;-66
2022/03/12 08:48:09;;;;;;;;;4.33;4.33;;;;;11.21;62.75;101145.44;5037599;28;45434;-69
2022/03/12 08:50:37;;;;;;;;;5.00;5.00;;;;;11.52;62.14;101171.94;5036744;28;46975;-70
2022/03/12 08:53:03;;;;;;;;;5.00;5.00;;;;;11.56;62.46;101162.69;5036223;28;45413;-69
2022/03/12 08:55:28;;;;;;;;;6.33;5.00;;;;;11.31;62.41;101104.66;5036772;28;45411;-70
2022/03/12 08:57:55;;;;;;;;;9.67;6.67;;;;;11.21;61.99;101078.91;5047080;28;45307;-70
2022/03/12 09:00:23;;;;;;;;;5.00;4.33;;;;;11.82;61.66;101166.50;5055822;28;45790;-70
2022/03/12 09:02:50;;;;;;;;;6.67;6.00;;;;;11.94;61.79;101169.84;5035589;28;45462;-70
2022/03/12 09:05:15;;;;;;;;;5.00;5.00;;;;;11.99;61.27;101166.75;5036085;28;45291;-69
2022/03/12 09:07:42;;;;;;;;;5.00;5.00;;;;;12.05;61.41;101169.69;5036229;28;45383;-71
2022/03/12 09:10:13;;;;;;;;;6.00;6.00;;;;;11.87;61.37;101129.63;5034275;28;47571;-69
2022/03/12 09:12:40;;;;;;;;;5.00;5.00;;;;;11.70;61.25;101085.03;5036729;28;45414;-67
2022/03/12 09:15:07;;;;;;;;;7.33;6.33;;;;;11.75;60.71;101085.44;5036850;28;45581;-73
2022/03/12 09:17:32;;;;;;;;;6.00;4.67;;;;;12.29;60.56;101166.53;5036032;28;45596;-69
2022/03/12 09:19:58;;;;;;;;;5.00;5.00;;;;;12.29;61.05;101165.72;5034959;28;47239;-71
2022/03/12 09:22:23;;;;;;;;;7.00;7.00;;;;;12.06;61.19;101114.56;5036328;28;45253;-71
2022/03/12 09:24:49;;;;;;;;;5.33;5.33;;;;;12.38;60.56;101167.50;5035265;28;45387;-71
2022/03/12 09:27:16;;;;;;;;;5.00;5.00;;;;;12.27;61.47;101133.03;5036771;28;45500;-70
2022/03/12 09:29:41;;;;;;;;;6.00;5.00;;;;;12.32;61.57;101123.59;5035488;28;46679;-70
2022/03/12 09:32:08;;;;;;;;;6.33;6.33;;;;;12.32;60.47;101123.59;5036150;28;45658;-71
2022/03/12 09:34:34;;;;;;;;;7.33;6.00;;;;;12.51;60.79;101143.16;5035362;28;45739;-71
2022/03/12 09:37:01;;;;;;;;;4.67;4.67;;;;;12.71;60.67;101168.78;5036814;28;45291;-70
2022/03/12 09:39:26;;;;;;;;;7.00;7.00;;;;;12.69;60.71;101166.25;5033754;28;46522;-73
2022/03/12 09:41:52;;;;;;;;;6.00;6.00;;;;;12.56;61.09;101140.91;5034300;28;45623;-72
2022/03/12 09:44:18;;;;;;;;;4.67;4.67;;;;;12.59;60.88;101156.59;5036708;28;45340;-73
2022/03/12 09:46:46;;;;;;;;;6.67;6.67;;;;;12.58;60.94;101158.44;5035466;28;45493;-71
2022/03/12 09:49:12;;;;;;;;;7.00;6.00;;;;;12.30;60.99;101128.22;5032430;28;47134;-73
2022/03/12 09:51:38;;;;;;;;;5.00;5.00;;;;;12.27;61.77;101114.38;5035070;28;45362;-71
2022/03/12 09:54:04;;;;;;;;;6.33;6.33;;;;;12.21;61.77;101104.25;5037017;28;45437;-71
2022/03/12 09:56:30;;;;;;;;;5.00;5.00;;;;;12.59;61.56;101145.94;5033886;28;45541;-74
2022/03/12 09:58:56;;;;;;;;;5.67;5.00;;;;;12.61;61.29;101122.63;5035069;28;46018;-74
2022/03/12 10:01:22;;;;;;;;;4.33;4.33;;;;;12.75;61.03;101135.47;5033469;28;45438;-71
2022/03/12 10:03:47;;;;;;;;;9.33;7.00;;;;;12.97;60.81;101140.41;5041787;28;45280;-71
2022/03/12 10:06:16;;;;;;;;;6.00;6.00;;;;;13.20;60.14;101156.84;5049554;28;45211;-70
2022/03/12 10:08:42;;;;;;;;;9.33;9.33;;;;;12.88;60.02;101082.59;5047113;28;48349;-71
2022/03/12 10:11:08;;;;;;;;;6.33;5.00;;;;;13.43;59.74;101165.28;5042227;28;45474;-69
2022/03/12 10:13:33;;;;;;;;;6.00;5.00;;;;;13.51;58.93;101160.00;5038435;28;45437;-71
2022/03/12 10:15:59;;;;;;;;;6.00;6.00;;;;;13.57;59.25;101150.53;5037879;28;45327;-71
2022/03/12 10:18:25;;;;;;;;;7.67;7.00;;;;;13.54;58.63;101138.34;5038484;28;48495;-70
2022/03/12 10:20:51;;;;;;;;;6.00;6.00;;;;;13.57;58.47;101130.00;5039742;28;45453;-71
2022/03/12 10:23:16;;;;;;;;;5.67;5.67;;;;;13.74;58.05;101154.19;5034897;28;45388;-72
2022/03/12 10:25:42;;;;;;;;;5.67;5.67;;;;;13.65;58.23;101127.44;5019833;28;45343;-71
2022/03/12 10:28:07;;;;;;;;;7.00;4.33;;;;;13.59;58.17;101112.00;5028682;28;46629;-73
2022/03/12 10:30:36;;;;;;;;;3.33;3.33;;;;;13.88;57.95;101156.31;5044174;28;45500;-78
2022/03/12 10:33:02;;;;;;;;;4.67;4.67;;;;;13.91;57.72;101156.00;5048948;28;45402;-70
2022/03/12 10:35:34;;;;;;;;;6.00;6.00;;;;;13.98;57.94;101157.06;5036365;28;45539;-70
2022/03/12 10:38:00;;;;;;;;;13.00;11.00;;;;;13.96;57.59;101154.53;5037058;28;45718;-72
2022/03/12 10:40:27;;;;;;;;;6.00;6.00;;;;;13.89;57.50;101148.16;5034968;28;45703;-71
2022/03/12 10:43:05;;;;;;;;;4.67;4.67;;;;;13.93;57.80;101148.66;5035590;28;45459;-70
2022/03/12 10:45:55;;;;;;;;;7.67;6.33;;;;;13.94;57.72;101151.19;5036338;28;45338;-75
2022/03/12 10:48:21;;;;;;;;;5.33;5.33;;;;;13.77;57.57;101127.16;5036759;28;46603;-71
2022/03/12 10:50:50;;;;;;;;;7.67;6.67;;;;;13.55;57.71;101113.31;5038236;28;45494;-70
2022/03/12 10:53:17;;;;;;;;;8.00;6.00;;;;;13.60;58.17;101140.38;5037985;28;45240;-71
2022/03/12 10:55:47;;;;;;;;;6.33;6.33;;;;;13.28;58.58;101097.38;5036207;28;46828;-74
2022/03/12 10:58:15;;;;;;;;;8.00;7.00;;;;;13.45;59.10;101133.94;5020957;28;47704;-69
2022/03/12 11:01:01;;;;;;;;;8.00;6.00;;;;;13.59;59.31;101135.19;5038347;28;45421;-71
2022/03/12 11:03:32;;;;;;;;;8.00;6.67;;;;;13.65;59.10;101137.28;5037428;28;45381;-73
2022/03/12 11:05:59;;;;;;;;;7.33;5.67;;;;;13.40;58.35;101088.97;5038225;28;45445;-72
2022/03/12 11:08:27;;;;;;;;;7.00;5.00;;;;;13.60;58.15;101137.72;5037202;28;46329;-71
2022/03/12 11:11:12;;;;;;;;;6.67;4.67;;;;;13.50;58.33;101118.28;5038164;28;45542;-70
2022/03/12 11:13:41;;;;;;;;;5.00;4.00;;;;;13.59;58.19;101130.69;5038453;28;45337;-71
2022/03/12 11:16:06;;;;;;;;;6.00;6.00;;;;;13.17;58.29;101046.84;5038443;28;45613;-72
2022/03/12 11:18:35;;;;;;;;;8.00;6.00;;;;;13.48;58.78;101103.41;5037990;28;46307;-71
2022/03/12 11:21:00;;;;;;;;;7.67;6.00;;;;;13.51;58.88;101105.75;5034607;28;45707;-71
2022/03/12 11:23:30;;;;;;;;;6.67;6.67;;;;;13.59;58.68;101114.66;5037947;28;45253;-72